Time;durP1;ratioP1;P1;durP2;ratioP2;P2;SDS_P1;SDS_P2;PMS_P1;PMS_P2;Temp;Humidity;BMP_temperature;BMP_pressure;BME280_temperature;BME280_humidity;BME280_pressure;Samples;Min_cycle;Max_cycle;Signal;HPM_P1;HPM_P2
2022/05/07 00:01:03;;;;;;;5.70;3.50;;;;;;;;;;5028777;28;20438;-68
2022/05/07 00:03:29;;;;;;;7.25;4.50;;;;;;;;;;5027364;28;20064;-68
2022/05/07 00:05:55;;;;;;;17.75;5.70;;;;;;;;;;5027583;28;20057;-67
2022/05/07 00:08:21;;;;;;;10.20;5.05;;;;;;;;;;5027633;28;20048;-67
2022/05/07 00:10:47;;;;;;;7.70;4.68;;;;;;;;;;5010822;28;20046;-67
2022/05/07 00:13:13;;;;;;;5.85;3.95;;;;;;;;;;5027503;28;20340;-67
2022/05/07 00:15:40;;;;;;;6.63;4.53;;;;;;;;;;5026766;28;20120;-67
2022/05/07 00:18:07;;;;;;;6.38;4.10;;;;;;;;;;5027712;28;20060;-67
2022/05/07 00:20:34;;;;;;;7.55;3.90;;;;;;;;;;5042613;28;20058;-67
2022/05/07 00:23:02;;;;;;;5.43;4.00;;;;;;;;;;5028183;28;20414;-67
2022/05/07 00:25:29;;;;;;;6.57;4.25;;;;;;;;;;5026871;28;20045;-67
2022/05/07 00:27:55;;;;;;;6.30;4.57;;;;;;;;;;5026874;28;20096;-67
2022/05/07 00:30:21;;;;;;;9.90;3.85;;;;;;;;;;5027422;28;20434;-67
2022/05/07 00:32:48;;;;;;;6.55;3.70;;;;;;;;;;5027049;28;20045;-67
2022/05/07 00:35:14;;;;;;;5.18;3.75;;;;;;;;;;5027422;28;20053;-67
2022/05/07 00:37:40;;;;;;;8.27;4.40;;;;;;;;;;5026743;28;21396;-67
2022/05/07 00:40:06;;;;;;;5.82;4.28;;;;;;;;;;5027460;28;20052;-68
2022/05/07 00:42:32;;;;;;;6.13;3.70;;;;;;;;;;5026602;28;20487;-67
2022/05/07 00:44:58;;;;;;;5.90;3.90;;;;;;;;;;5026488;28;20506;-67
2022/05/07 00:47:26;;;;;;;4.47;3.70;;;;;;;;;;5026830;28;20057;-68
2022/05/07 00:51:33;;;;;;;6.20;3.83;;;;;;;;;;5026099;28;20399;-68
2022/05/07 00:52:45;;;;;;;6.47;3.97;;;;;;;;;;5027394;28;20052;-68
2022/05/07 00:55:12;;;;;;;6.82;4.25;;;;;;;;;;5026792;28;20038;-68
2022/05/07 00:57:39;;;;;;;5.60;4.25;;;;;;;;;;5026819;28;20046;-68
2022/05/07 01:00:05;;;;;;;7.03;4.32;;;;;;;;;;5026441;28;20072;-69
2022/05/07 01:02:31;;;;;;;6.45;4.43;;;;;;;;;;5027238;28;20045;-69
2022/05/07 01:04:57;;;;;;;4.85;4.10;;;;;;;;;;5025697;28;20191;-68
2022/05/07 01:07:23;;;;;;;7.72;4.90;;;;;;;;;;5025190;28;20041;-68
2022/05/07 01:09:50;;;;;;;7.15;4.20;;;;;;;;;;5026852;28;20049;-68
2022/05/07 01:12:16;;;;;;;9.00;4.45;;;;;;;;;;5026050;28;20517;-69
2022/05/07 01:14:42;;;;;;;6.28;4.20;;;;;;;;;;5026035;28;20095;-68
2022/05/07 01:17:09;;;;;;;5.80;4.10;;;;;;;;;;5026740;28;20170;-69
2022/05/07 01:19:35;;;;;;;7.00;3.90;;;;;;;;;;5025210;28;20425;-68
2022/05/07 01:22:03;;;;;;;5.70;3.85;;;;;;;;;;5026834;28;20073;-68
2022/05/07 01:24:29;;;;;;;7.57;4.32;;;;;;;;;;5026200;28;20061;-68
2022/05/07 01:26:55;;;;;;;8.15;4.13;;;;;;;;;;5025555;28;20041;-68
2022/05/07 01:29:21;;;;;;;5.22;3.92;;;;;;;;;;5024885;28;20045;-68
2022/05/07 01:31:47;;;;;;;5.07;3.97;;;;;;;;;;5026289;28;20058;-68
2022/05/07 01:34:13;;;;;;;6.93;3.90;;;;;;;;;;5025677;28;20076;-68
2022/05/07 01:36:39;;;;;;;5.68;3.95;;;;;;;;;;5025111;28;20053;-68
2022/05/07 01:39:06;;;;;;;6.07;4.00;;;;;;;;;;5022681;28;20393;-68
2022/05/07 01:41:32;;;;;;;6.50;3.63;;;;;;;;;;5025714;28;20056;-68
2022/05/07 01:43:58;;;;;;;6.88;3.72;;;;;;;;;;5025823;28;20037;-67
2022/05/07 01:49:09;;;;;;;6.13;4.22;;;;;;;;;;5026100;28;20053;-68
2022/05/07 01:51:35;;;;;;;6.55;4.32;;;;;;;;;;5025429;28;20530;-68
2022/05/07 01:54:01;;;;;;;7.75;5.38;;;;;;;;;;5024260;28;20098;-69
2022/05/07 01:56:27;;;;;;;11.25;5.20;;;;;;;;;;5026621;28;20041;-67
2022/05/07 01:58:53;;;;;;;7.38;4.97;;;;;;;;;;5026196;28;20103;-67
2022/05/07 02:01:20;;;;;;;8.20;4.72;;;;;;;;;;5026010;28;20045;-68
2022/05/07 02:03:46;;;;;;;7.10;4.88;;;;;;;;;;5025645;28;20053;-67
2022/05/07 02:06:12;;;;;;;7.22;4.22;;;;;;;;;;5026880;28;20049;-67
2022/05/07 02:08:38;;;;;;;6.68;4.75;;;;;;;;;;5041662;28;20100;-67
2022/05/07 02:11:04;;;;;;;7.65;5.10;;;;;;;;;;5025990;28;20151;-67
2022/05/07 02:13:31;;;;;;;7.80;4.63;;;;;;;;;;5026047;28;20521;-67
2022/05/07 02:15:57;;;;;;;5.93;4.22;;;;;;;;;;5026072;28;20042;-67
2022/05/07 02:18:23;;;;;;;7.47;4.50;;;;;;;;;;5026021;28;20045;-67
2022/05/07 02:20:49;;;;;;;5.78;4.13;;;;;;;;;;5025758;28;20045;-68
2022/05/07 02:23:17;;;;;;;8.38;4.38;;;;;;;;;;5024277;28;20110;-67
2022/05/07 02:25:43;;;;;;;7.32;5.00;;;;;;;;;;5026200;28;20060;-67
2022/05/07 02:28:09;;;;;;;7.95;4.95;;;;;;;;;;5026409;28;20049;-67
2022/05/07 02:30:35;;;;;;;7.63;4.78;;;;;;;;;;5026450;28;20045;-67
2022/05/07 02:33:01;;;;;;;5.97;4.50;;;;;;;;;;5025853;28;20048;-67
2022/05/07 02:35:27;;;;;;;7.38;4.75;;;;;;;;;;5026177;28;20037;-67
2022/05/07 02:37:54;;;;;;;6.65;4.40;;;;;;;;;;5026648;28;20160;-67
2022/05/07 02:40:20;;;;;;;7.32;5.05;;;;;;;;;;5024090;28;20128;-67
2022/05/07 02:42:46;;;;;;;8.40;4.78;;;;;;;;;;5024721;28;20096;-67
2022/05/07 02:45:13;;;;;;;5.85;4.20;;;;;;;;;;5025226;28;20061;-67
2022/05/07 02:47:40;;;;;;;5.82;4.50;;;;;;;;;;5026094;28;20124;-67
2022/05/07 02:50:07;;;;;;;6.40;4.60;;;;;;;;;;5025805;28;20045;-67
2022/05/07 02:52:33;;;;;;;5.65;4.60;;;;;;;;;;5026282;28;20046;-67
2022/05/07 02:55:08;;;;;;;8.32;4.63;;;;;;;;;;5024064;28;20475;-67
2022/05/07 02:57:35;;;;;;;6.43;4.53;;;;;;;;;;5026773;28;20045;-67
2022/05/07 03:00:01;;;;;;;6.43;4.80;;;;;;;;;;5025798;28;20046;-68
2022/05/07 03:02:27;;;;;;;6.60;4.88;;;;;;;;;;5025482;28;20060;-68
2022/05/07 03:04:53;;;;;;;6.43;4.75;;;;;;;;;;5025930;28;20042;-67
2022/05/07 03:07:19;;;;;;;7.43;4.90;;;;;;;;;;5029153;28;20116;-67
2022/05/07 03:09:45;;;;;;;6.60;4.68;;;;;;;;;;5028715;28;20041;-67
2022/05/07 03:12:11;;;;;;;8.52;4.50;;;;;;;;;;5029391;28;20038;-67
2022/05/07 03:14:37;;;;;;;7.30;4.75;;;;;;;;;;5029061;28;20073;-67
2022/05/07 03:17:03;;;;;;;6.10;4.20;;;;;;;;;;5028134;28;20119;-67
2022/05/07 03:19:29;;;;;;;6.75;4.38;;;;;;;;;;5029039;28;20037;-67
2022/05/07 03:21:55;;;;;;;7.72;4.43;;;;;;;;;;5029471;28;20048;-67
2022/05/07 03:24:22;;;;;;;6.25;4.28;;;;;;;;;;5029375;28;20128;-68
2022/05/07 03:26:48;;;;;;;7.80;4.40;;;;;;;;;;5029099;28;20121;-68
2022/05/07 03:29:14;;;;;;;7.68;4.55;;;;;;;;;;5027278;28;20057;-68
2022/05/07 03:31:40;;;;;;;5.88;4.03;;;;;;;;;;5028976;28;20049;-68
2022/05/07 03:34:08;;;;;;;6.00;4.30;;;;;;;;;;5028783;28;20140;-68
2022/05/07 03:36:34;;;;;;;5.23;4.23;;;;;;;;;;5028730;28;20049;-68
2022/05/07 03:39:00;;;;;;;6.15;4.47;;;;;;;;;;5028650;28;20041;-68
2022/05/07 03:41:26;;;;;;;5.70;4.47;;;;;;;;;;5028982;28;20041;-68
2022/05/07 03:43:53;;;;;;;5.15;4.15;;;;;;;;;;5028902;28;20509;-68
2022/05/07 03:46:21;;;;;;;6.00;4.35;;;;;;;;;;5028470;28;20049;-67
2022/05/07 03:48:47;;;;;;;5.50;4.38;;;;;;;;;;5028836;28;20557;-68
2022/05/07 03:51:13;;;;;;;6.20;3.92;;;;;;;;;;5028612;28;20064;-68
2022/05/07 03:53:39;;;;;;;7.80;5.00;;;;;;;;;;5028511;28;20042;-68
2022/05/07 03:56:08;;;;;;;7.38;4.90;;;;;;;;;;5028790;28;20041;-67
2022/05/07 03:58:35;;;;;;;6.53;4.57;;;;;;;;;;5027699;28;20045;-67
2022/05/07 04:01:01;;;;;;;5.55;4.53;;;;;;;;;;5028518;28;20045;-67
2022/05/07 04:03:28;;;;;;;8.95;5.20;;;;;;;;;;5028016;28;20404;-67
2022/05/07 04:05:55;;;;;;;7.13;5.10;;;;;;;;;;5027707;28;20091;-67
2022/05/07 04:08:21;;;;;;;7.72;5.13;;;;;;;;;;5028320;28;20056;-67
2022/05/07 04:10:47;;;;;;;8.77;4.63;;;;;;;;;;5028275;28;20059;-67
2022/05/07 04:13:15;;;;;;;6.78;4.53;;;;;;;;;;5028019;28;20049;-68
2022/05/07 04:15:43;;;;;;;6.65;5.03;;;;;;;;;;5027496;28;20491;-67
2022/05/07 04:18:09;;;;;;;6.78;4.55;;;;;;;;;;5025570;28;20099;-67
2022/05/07 04:20:35;;;;;;;6.03;4.60;;;;;;;;;;5028337;28;20438;-67
2022/05/07 04:23:01;;;;;;;6.28;4.70;;;;;;;;;;5027175;28;20046;-67
2022/05/07 04:25:27;;;;;;;8.68;4.97;;;;;;;;;;5027987;28;20188;-67
2022/05/07 04:27:53;;;;;;;7.78;5.00;;;;;;;;;;5027725;28;20092;-67
2022/05/07 04:30:20;;;;;;;6.85;4.70;;;;;;;;;;5027755;28;20045;-67
2022/05/07 04:32:46;;;;;;;6.80;4.70;;;;;;;;;;5027752;28;20407;-66
2022/05/07 04:35:12;;;;;;;5.63;4.63;;;;;;;;;;5027845;28;20115;-67
2022/05/07 04:37:38;;;;;;;5.63;3.97;;;;;;;;;;5027695;28;20557;-67
2022/05/07 04:40:05;;;;;;;6.13;4.95;;;;;;;;;;5027908;28;20139;-67
2022/05/07 04:42:31;;;;;;;8.13;4.80;;;;;;;;;;5027208;28;20042;-67
2022/05/07 04:44:57;;;;;;;6.60;5.03;;;;;;;;;;5027821;28;20065;-67
2022/05/07 04:47:23;;;;;;;5.55;4.45;;;;;;;;;;5027314;28;20561;-67
2022/05/07 04:49:49;;;;;;;7.70;5.25;;;;;;;;;;5026913;28;20049;-66
2022/05/07 04:52:15;;;;;;;6.32;4.63;;;;;;;;;;5028104;28;20452;-67
2022/05/07 04:54:41;;;;;;;6.88;4.80;;;;;;;;;;5026943;28;20456;-67
2022/05/07 04:57:07;;;;;;;6.00;4.40;;;;;;;;;;5024735;28;20041;-68
2022/05/07 04:59:33;;;;;;;7.70;5.20;;;;;;;;;;5028019;28;20046;-69
2022/05/07 05:01:59;;;;;;;6.65;4.82;;;;;;;;;;5027335;28;20041;-69
2022/05/07 05:04:25;;;;;;;7.90;5.10;;;;;;;;;;5028271;28;20081;-68
2022/05/07 05:06:51;;;;;;;13.82;4.97;;;;;;;;;;5026517;28;20038;-68
2022/05/07 05:09:18;;;;;;;10.75;4.68;;;;;;;;;;5027341;28;20037;-66
2022/05/07 05:11:44;;;;;;;10.90;5.15;;;;;;;;;;5024284;28;20048;-67
2022/05/07 05:16:55;;;;;;;7.70;4.97;;;;;;;;;;5021487;28;20044;-68
2022/05/07 05:19:21;;;;;;;10.15;5.50;;;;;;;;;;5026741;28;20455;-67
2022/05/07 05:21:47;;;;;;;9.05;5.03;;;;;;;;;;5025105;28;20053;-67
2022/05/07 05:24:13;;;;;;;7.32;5.03;;;;;;;;;;5026839;28;20511;-67
2022/05/07 05:26:39;;;;;;;9.38;4.78;;;;;;;;;;5027718;28;20052;-67
2022/05/07 05:29:05;;;;;;;6.50;4.50;;;;;;;;;;5025855;28;20125;-67
2022/05/07 05:31:31;;;;;;;8.43;4.63;;;;;;;;;;5026559;28;20073;-67
2022/05/07 05:33:58;;;;;;;5.88;4.60;;;;;;;;;;5027731;28;20107;-67
2022/05/07 05:36:26;;;;;;;7.53;5.10;;;;;;;;;;5026669;28;20419;-68
2022/05/07 05:38:52;;;;;;;5.43;4.50;;;;;;;;;;5026302;28;20045;-69
2022/05/07 05:41:19;;;;;;;8.23;4.80;;;;;;;;;;5026410;28;20088;-68
2022/05/07 05:43:46;;;;;;;7.30;4.85;;;;;;;;;;5017193;28;20384;-67
2022/05/07 05:46:14;;;;;;;7.07;4.80;;;;;;;;;;5024884;28;20050;-67
2022/05/07 05:48:40;;;;;;;7.70;4.93;;;;;;;;;;5025071;28;20045;-67
2022/05/07 05:51:06;;;;;;;6.95;4.47;;;;;;;;;;5025359;28;20475;-68
2022/05/07 05:53:32;;;;;;;6.20;4.45;;;;;;;;;;5025814;28;20052;-67
2022/05/07 05:56:00;;;;;;;6.78;4.70;;;;;;;;;;5025942;28;20064;-68
2022/05/07 05:58:32;;;;;;;5.07;4.03;;;;;;;;;;5025529;28;20045;-68
2022/05/07 06:00:59;;;;;;;7.93;5.07;;;;;;;;;;5026559;28;20053;-68
2022/05/07 06:03:25;;;;;;;5.88;3.97;;;;;;;;;;5025905;28;20539;-68
2022/05/07 06:05:51;;;;;;;9.10;4.70;;;;;;;;;;5025035;28;20605;-68
2022/05/07 06:08:17;;;;;;;6.50;4.55;;;;;;;;;;5025890;28;20188;-68
2022/05/07 06:10:43;;;;;;;6.30;4.53;;;;;;;;;;5026033;28;20542;-68
2022/05/07 06:13:09;;;;;;;7.07;4.47;;;;;;;;;;5026157;28;20188;-68
2022/05/07 06:15:36;;;;;;;9.15;4.82;;;;;;;;;;5025856;28;20152;-68
2022/05/07 06:18:02;;;;;;;8.52;4.65;;;;;;;;;;5026017;28;20091;-68
2022/05/07 06:20:28;;;;;;;5.03;4.22;;;;;;;;;;5025334;28;20049;-68
2022/05/07 06:22:58;;;;;;;10.48;5.20;;;;;;;;;;5026185;28;20107;-68
2022/05/07 06:28:08;;;;;;;5.82;4.15;;;;;;;;;;5023151;28;20034;-68
2022/05/07 06:30:35;;;;;;;6.93;4.72;;;;;;;;;;5025350;28;20487;-68
2022/05/07 06:33:01;;;;;;;8.23;4.60;;;;;;;;;;5025917;28;20466;-68
2022/05/07 06:35:28;;;;;;;5.22;4.32;;;;;;;;;;5025150;28;20496;-66
2022/05/07 06:37:54;;;;;;;5.47;4.10;;;;;;;;;;5025903;28;20048;-69
2022/05/07 06:40:20;;;;;;;5.18;4.10;;;;;;;;;;5026249;28;20041;-66
2022/05/07 06:42:46;;;;;;;6.40;4.55;;;;;;;;;;5028121;28;20061;-66
2022/05/07 06:45:13;;;;;;;7.60;4.45;;;;;;;;;;5029365;28;20179;-66
2022/05/07 06:47:39;;;;;;;6.40;4.30;;;;;;;;;;5028979;28;20044;-68
2022/05/07 06:50:05;;;;;;;7.00;4.75;;;;;;;;;;5029460;28;20123;-68
2022/05/07 06:52:31;;;;;;;6.80;4.25;;;;;;;;;;5029412;28;20037;-68
2022/05/07 06:54:58;;;;;;;6.00;4.20;;;;;;;;;;5027868;28;20045;-68
2022/05/07 06:57:24;;;;;;;5.95;4.43;;;;;;;;;;5028379;28;20041;-68
2022/05/07 06:59:50;;;;;;;6.93;4.75;;;;;;;;;;5027103;28;20052;-68
2022/05/07 07:02:16;;;;;;;6.28;4.40;;;;;;;;;;5028600;28;20057;-68
2022/05/07 07:04:42;;;;;;;5.75;4.20;;;;;;;;;;5029016;28;20088;-68
2022/05/07 07:07:08;;;;;;;5.25;3.92;;;;;;;;;;5028890;28;20120;-69
2022/05/07 07:09:35;;;;;;;5.25;4.13;;;;;;;;;;5027863;28;20487;-68
2022/05/07 07:12:01;;;;;;;6.50;4.50;;;;;;;;;;5028476;28;20041;-69
2022/05/07 07:14:27;;;;;;;6.35;4.40;;;;;;;;;;5026712;28;20140;-69
2022/05/07 07:16:53;;;;;;;5.57;4.25;;;;;;;;;;5028836;28;20207;-69
2022/05/07 07:19:19;;;;;;;5.50;4.40;;;;;;;;;;5010436;28;20045;-69
2022/05/07 07:21:45;;;;;;;5.28;4.22;;;;;;;;;;5029123;28;20047;-69
2022/05/07 07:24:11;;;;;;;5.45;4.10;;;;;;;;;;5029177;28;20406;-68
2022/05/07 07:26:37;;;;;;;6.18;4.85;;;;;;;;;;5030938;28;20045;-69
2022/05/07 07:29:04;;;;;;;5.03;3.85;;;;;;;;;;5028690;28;20136;-67
2022/05/07 07:31:31;;;;;;;6.88;4.53;;;;;;;;;;5026656;28;20076;-68
2022/05/07 07:33:57;;;;;;;6.20;4.53;;;;;;;;;;5028064;28;20045;-68
2022/05/07 07:36:23;;;;;;;7.05;4.25;;;;;;;;;;5028769;28;20041;-67
2022/05/07 07:38:49;;;;;;;6.40;4.40;;;;;;;;;;5027745;28;20123;-67
2022/05/07 07:41:16;;;;;;;5.00;3.90;;;;;;;;;;5029177;28;20503;-67
2022/05/07 07:43:43;;;;;;;6.15;4.57;;;;;;;;;;5028597;28;20037;-67
2022/05/07 07:49:06;;;;;;;6.15;4.25;;;;;;;;;;4940446;28;20054;-68
2022/05/07 07:51:32;;;;;;;6.70;4.30;;;;;;;;;;5027935;28;20053;-68
2022/05/07 07:53:58;;;;;;;5.97;4.30;;;;;;;;;;5027830;28;20115;-68
2022/05/07 07:56:24;;;;;;;7.32;4.43;;;;;;;;;;5025911;28;20076;-68
2022/05/07 07:58:51;;;;;;;4.40;3.70;;;;;;;;;;5029123;28;20167;-68
2022/05/07 08:01:17;;;;;;;5.10;4.28;;;;;;;;;;5028211;28;20054;-68
2022/05/07 08:03:43;;;;;;;5.38;4.13;;;;;;;;;;5027789;28;20064;-68
2022/05/07 08:06:09;;;;;;;5.15;4.10;;;;;;;;;;5028076;28;20414;-67
2022/05/07 08:14:06;;;;;;;8.38;4.80;;;;;;;;;;5025950;28;20104;-68
2022/05/07 08:16:33;;;;;;;6.25;4.38;;;;;;;;;;5027780;28;20461;-67
2022/05/07 08:18:59;;;;;;;5.57;4.53;;;;;;;;;;5025969;28;20044;-68
2022/05/07 08:21:26;;;;;;;7.05;4.63;;;;;;;;;;5028126;28;20130;-68
2022/05/07 08:23:52;;;;;;;9.02;6.45;;;;;;;;;;5028602;28;20041;-69
2022/05/07 08:26:18;;;;;;;8.55;6.28;;;;;;;;;;5027841;28;20053;-68
2022/05/07 08:28:44;;;;;;;10.15;6.43;;;;;;;;;;5027237;28;20045;-67
2022/05/07 08:31:10;;;;;;;7.32;5.88;;;;;;;;;;5029640;28;20041;-67
2022/05/07 08:33:39;;;;;;;8.35;6.57;;;;;;;;;;5030978;28;20038;-66
2022/05/07 08:36:05;;;;;;;9.90;6.70;;;;;;;;;;5029461;28;20044;-68
2022/05/07 08:38:31;;;;;;;8.85;6.13;;;;;;;;;;5030280;28;20138;-67
2022/05/07 08:40:59;;;;;;;8.88;6.63;;;;;;;;;;5029979;28;20099;-67
2022/05/07 08:43:25;;;;;;;8.38;6.00;;;;;;;;;;5029831;28;20621;-67
2022/05/07 08:45:51;;;;;;;8.93;6.05;;;;;;;;;;5029727;28;20041;-67
2022/05/07 08:48:18;;;;;;;7.97;6.50;;;;;;;;;;5030562;28;20038;-67
2022/05/07 08:50:45;;;;;;;7.32;5.68;;;;;;;;;;5014891;28;20053;-68
2022/05/07 08:53:12;;;;;;;8.45;6.57;;;;;;;;;;5008483;28;20049;-67
2022/05/07 08:55:38;;;;;;;10.57;6.82;;;;;;;;;;5036718;28;20187;-68
2022/05/07 08:58:04;;;;;;;7.82;6.32;;;;;;;;;;5044845;28;20053;-68
2022/05/07 09:00:30;;;;;;;9.02;6.40;;;;;;;;;;5029372;28;20045;-68
2022/05/07 09:02:58;;;;;;;10.25;6.90;;;;;;;;;;5029023;28;20089;-67
2022/05/07 09:05:44;;;;;;;8.27;6.55;;;;;;;;;;5028005;28;20133;-67
2022/05/07 09:08:13;;;;;;;8.60;6.30;;;;;;;;;;5029013;28;20053;-67
2022/05/07 09:10:39;;;;;;;10.45;6.97;;;;;;;;;;5029826;28;20045;-67
2022/05/07 09:13:15;;;;;;;8.98;6.85;;;;;;;;;;5029362;28;20056;-68
2022/05/07 09:15:51;;;;;;;9.55;7.20;;;;;;;;;;5029982;28;20045;-68
2022/05/07 09:18:19;;;;;;;11.52;7.90;;;;;;;;;;5029898;28;20224;-68
2022/05/07 09:20:46;;;;;;;9.57;7.35;;;;;;;;;;5029252;28;20083;-68
2022/05/07 09:23:12;;;;;;;11.10;6.82;;;;;;;;;;5029220;28;20049;-68
2022/05/07 09:25:46;;;;;;;8.70;6.60;;;;;;;;;;5029765;28;20507;-68
2022/05/07 09:28:12;;;;;;;9.13;6.28;;;;;;;;;;5028935;28;20574;-68
2022/05/07 09:30:41;;;;;;;8.05;5.85;;;;;;;;;;5029507;28;20123;-68
2022/05/07 09:33:07;;;;;;;7.80;5.95;;;;;;;;;;5028572;28;20056;-68
2022/05/07 09:35:49;;;;;;;9.20;5.93;;;;;;;;;;5013878;28;20042;-68
2022/05/07 09:38:16;;;;;;;7.03;5.45;;;;;;;;;;5009498;28;20050;-68
2022/05/07 09:40:43;;;;;;;7.80;5.93;;;;;;;;;;5008115;28;20049;-68
2022/05/07 09:43:10;;;;;;;7.55;5.93;;;;;;;;;;5009809;28;20610;-67
2022/05/07 09:45:37;;;;;;;6.80;5.53;;;;;;;;;;5009576;28;20077;-68
2022/05/07 09:48:04;;;;;;;8.02;6.25;;;;;;;;;;5009558;28;20050;-67
2022/05/07 09:58:40;;;;;;;8.57;5.72;;;;;;;;;;5028985;28;20052;-68
2022/05/07 10:01:20;;;;;;;9.38;6.47;;;;;;;;;;5027360;28;20534;-67
2022/05/07 10:04:06;;;;;;;9.00;5.40;;;;;;;;;;5028633;28;20057;-67
2022/05/07 10:06:35;;;;;;;8.35;5.63;;;;;;;;;;5028924;28;20088;-67
2022/05/07 10:09:18;;;;;;;8.93;5.72;;;;;;;;;;5027987;28;20049;-67
2022/05/07 10:11:45;;;;;;;8.32;5.82;;;;;;;;;;5029010;28;20041;-67
2022/05/07 10:14:23;;;;;;;8.68;5.35;;;;;;;;;;5029115;28;20037;-67
2022/05/07 10:16:56;;;;;;;7.82;5.20;;;;;;;;;;5030719;28;20145;-66
2022/05/07 10:19:32;;;;;;;7.60;5.50;;;;;;;;;;5032829;28;20423;-67
2022/05/07 10:21:58;;;;;;;7.68;5.75;;;;;;;;;;5033181;28;20049;-66
2022/05/07 10:24:25;;;;;;;7.93;5.45;;;;;;;;;;5032877;28;20471;-67
2022/05/07 10:26:54;;;;;;;8.48;5.80;;;;;;;;;;5032931;28;20060;-67
2022/05/07 10:29:28;;;;;;;8.05;6.30;;;;;;;;;;5031154;28;20144;-67
2022/05/07 10:32:04;;;;;;;10.02;6.05;;;;;;;;;;5033119;28;20513;-67
2022/05/07 10:34:30;;;;;;;8.63;6.45;;;;;;;;;;5032763;28;20480;-68
2022/05/07 10:37:03;;;;;;;11.48;6.35;;;;;;;;;;5030894;28;20053;-67
2022/05/07 10:39:31;;;;;;;10.82;5.95;;;;;;;;;;5032573;28;20426;-67
2022/05/07 10:41:58;;;;;;;8.60;6.28;;;;;;;;;;5031861;28;20083;-67
2022/05/07 10:44:31;;;;;;;10.18;6.47;;;;;;;;;;5032145;28;20042;-67
2022/05/07 10:47:08;;;;;;;12.90;7.68;;;;;;;;;;5032735;28;20041;-67
2022/05/07 10:49:34;;;;;;;9.75;7.03;;;;;;;;;;5032310;28;20514;-68
2022/05/07 10:52:03;;;;;;;9.52;7.38;;;;;;;;;;5032039;28;20049;-67
2022/05/07 10:54:29;;;;;;;8.60;6.55;;;;;;;;;;5031585;28;20048;-68
2022/05/07 10:56:57;;;;;;;7.22;5.97;;;;;;;;;;5032097;28;20049;-68
2022/05/07 10:59:23;;;;;;;8.68;6.43;;;;;;;;;;5032359;28;20045;-67
2022/05/07 11:01:50;;;;;;;9.30;6.85;;;;;;;;;;5032020;28;20045;-66
2022/05/07 11:04:22;;;;;;;8.25;6.43;;;;;;;;;;5029821;28;20665;-67
2022/05/07 11:12:32;;;;;;;9.18;6.03;;;;;;;;;;5046764;22;20057;-66
2022/05/07 11:14:58;;;;;;;8.82;5.65;;;;;;;;;;5052241;28;20045;-67
2022/05/07 11:17:35;;;;;;;7.53;5.75;;;;;;;;;;5052743;28;20049;-67
2022/05/07 11:20:02;;;;;;;7.50;5.30;;;;;;;;;;5051906;28;20078;-66
2022/05/07 11:22:29;;;;;;;9.88;5.65;;;;;;;;;;5034317;28;20084;-66
2022/05/07 11:24:57;;;;;;;7.13;5.43;;;;;;;;;;5051520;28;20048;-66
2022/05/07 11:27:26;;;;;;;7.93;5.20;;;;;;;;;;5051925;28;20048;-67
2022/05/07 11:29:56;;;;;;;8.93;5.47;;;;;;;;;;5052378;28;20056;-67
2022/05/07 11:32:23;;;;;;;6.63;5.05;;;;;;;;;;5052293;28;20091;-67
2022/05/07 11:34:55;;;;;;;7.15;5.40;;;;;;;;;;5051234;28;20119;-67
2022/05/07 11:37:23;;;;;;;8.43;5.40;;;;;;;;;;5034195;28;20049;-67
2022/05/07 11:39:49;;;;;;;6.75;5.25;;;;;;;;;;5051768;28;20398;-66
2022/05/07 11:42:27;;;;;;;7.68;5.03;;;;;;;;;;5051475;28;20053;-67
2022/05/07 11:47:39;;;;;;;7.18;5.10;;;;;;;;;;5050981;28;20536;-67
2022/05/07 11:50:06;;;;;;;6.80;4.45;;;;;;;;;;5051262;28;20485;-67
2022/05/07 11:52:32;;;;;;;7.47;4.55;;;;;;;;;;5051749;28;20080;-67
2022/05/07 11:55:03;;;;;;;7.50;4.68;;;;;;;;;;5033113;28;20045;-68
2022/05/07 11:57:29;;;;;;;10.32;5.22;;;;;;;;;;5050387;28;20045;-68
2022/05/07 11:59:55;;;;;;;7.22;4.45;;;;;;;;;;5050986;28;20060;-68
2022/05/07 12:02:21;;;;;;;8.25;5.28;;;;;;;;;;5051658;28;20517;-68
2022/05/07 12:04:56;;;;;;;6.22;4.22;;;;;;;;;;5051374;28;20514;-68
2022/05/07 12:07:22;;;;;;;5.78;4.68;;;;;;;;;;5051052;28;20135;-68
2022/05/07 12:09:49;;;;;;;7.07;4.50;;;;;;;;;;5050035;28;20451;-68
2022/05/07 12:12:15;;;;;;;5.90;4.57;;;;;;;;;;5051108;28;20421;-68
2022/05/07 12:14:41;;;;;;;6.35;4.50;;;;;;;;;;5050736;28;20178;-67
2022/05/07 12:19:51;;;;;;;6.82;4.43;;;;;;;;;;5050530;28;20049;-67
2022/05/07 12:30:32;;;;;;;5.90;4.57;;;;;;;;;;5050502;28;20469;-68
2022/05/07 12:32:58;;;;;;;6.35;4.68;;;;;;;;;;5050598;28;20041;-68
2022/05/07 12:35:24;;;;;;;5.68;4.40;;;;;;;;;;5050855;28;20045;-68
2022/05/07 12:37:50;;;;;;;7.45;4.50;;;;;;;;;;5050043;28;20045;-68
2022/05/07 12:40:16;;;;;;;7.40;4.75;;;;;;;;;;5050315;28;20482;-68
2022/05/07 12:42:42;;;;;;;7.55;4.88;;;;;;;;;;5050651;28;20041;-68
2022/05/07 12:45:08;;;;;;;6.60;4.57;;;;;;;;;;5049882;28;20609;-68
2022/05/07 12:47:34;;;;;;;5.88;4.28;;;;;;;;;;5050667;28;20409;-68
2022/05/07 12:50:00;;;;;;;5.82;4.07;;;;;;;;;;5050481;28;20048;-68
2022/05/07 12:52:26;;;;;;;5.93;4.32;;;;;;;;;;5050205;28;20045;-68
2022/05/07 12:54:52;;;;;;;5.60;4.53;;;;;;;;;;5050242;28;20514;-68
2022/05/07 12:57:18;;;;;;;5.80;4.32;;;;;;;;;;5050407;28;20152;-68
2022/05/07 12:59:44;;;;;;;5.38;4.15;;;;;;;;;;5049492;28;20049;-68
2022/05/07 13:02:11;;;;;;;5.63;4.57;;;;;;;;;;5050219;28;20414;-67
2022/05/07 13:04:37;;;;;;;8.70;4.55;;;;;;;;;;5050421;28;20056;-67
2022/05/07 13:07:04;;;;;;;14.07;4.55;;;;;;;;;;5050187;28;20053;-68
2022/05/07 13:09:31;;;;;;;6.53;4.32;;;;;;;;;;5050209;28;20122;-69
2022/05/07 13:11:57;;;;;;;6.97;3.85;;;;;;;;;;5032107;28;20065;-69
2022/05/07 13:14:24;;;;;;;7.18;3.83;;;;;;;;;;5049888;28;20083;-69
2022/05/07 13:16:50;;;;;;;7.53;3.75;;;;;;;;;;5050187;28;20048;-69
2022/05/07 13:19:17;;;;;;;5.70;3.92;;;;;;;;;;5050037;28;20244;-70
2022/05/07 13:21:43;;;;;;;6.88;3.85;;;;;;;;;;5049984;28;20052;-69
2022/05/07 13:24:14;;;;;;;5.60;3.55;;;;;;;;;;5049782;28;20044;-68
2022/05/07 13:26:40;;;;;;;6.20;3.67;;;;;;;;;;5049113;28;20072;-69
2022/05/07 13:29:06;;;;;;;5.65;3.78;;;;;;;;;;5048842;28;20512;-68
2022/05/07 13:31:33;;;;;;;4.80;3.65;;;;;;;;;;5049174;28;20052;-68
2022/05/07 13:34:00;;;;;;;5.95;3.63;;;;;;;;;;5047966;28;20110;-68
2022/05/07 13:36:26;;;;;;;6.32;3.90;;;;;;;;;;5049276;28;20045;-67
2022/05/07 13:38:52;;;;;;;6.22;3.67;;;;;;;;;;5049306;28;20055;-67
2022/05/07 13:41:20;;;;;;;5.07;3.60;;;;;;;;;;5031367;28;20052;-68
2022/05/07 13:43:47;;;;;;;6.00;3.43;;;;;;;;;;5049736;28;20517;-68
2022/05/07 13:46:13;;;;;;;4.43;3.10;;;;;;;;;;5049396;28;20048;-69
2022/05/07 13:48:39;;;;;;;6.15;3.80;;;;;;;;;;5049503;28;20055;-69
2022/05/07 13:51:05;;;;;;;4.72;3.20;;;;;;;;;;5047984;28;20049;-69
2022/05/07 13:53:32;;;;;;;7.35;3.70;;;;;;;;;;5048324;28;20418;-68
2022/05/07 13:55:58;;;;;;;4.90;3.28;;;;;;;;;;5049392;28;20036;-69
2022/05/07 13:58:24;;;;;;;5.40;2.88;;;;;;;;;;5049568;28;20049;-69
2022/05/07 14:00:51;;;;;;;4.35;3.13;;;;;;;;;;5049740;28;20463;-68
2022/05/07 14:03:17;;;;;;;6.00;3.70;;;;;;;;;;5049776;28;20056;-68
2022/05/07 14:05:44;;;;;;;5.38;3.33;;;;;;;;;;5049219;28;20048;-68
2022/05/07 14:08:10;;;;;;;5.72;3.67;;;;;;;;;;5049873;28;20051;-68
2022/05/07 14:10:36;;;;;;;4.15;3.10;;;;;;;;;;5048970;28;20486;-68
2022/05/07 14:13:03;;;;;;;4.25;2.65;;;;;;;;;;5049614;28;20102;-68
2022/05/07 14:15:29;;;;;;;4.18;2.90;;;;;;;;;;5049443;28;20079;-69
2022/05/07 14:17:55;;;;;;;4.22;3.30;;;;;;;;;;5048506;28;20045;-68
2022/05/07 14:20:21;;;;;;;4.47;3.00;;;;;;;;;;5048951;28;20084;-69
2022/05/07 14:22:47;;;;;;;5.20;3.60;;;;;;;;;;5031248;28;20060;-68
2022/05/07 14:25:13;;;;;;;5.82;2.97;;;;;;;;;;5048533;28;20049;-68
2022/05/07 14:27:40;;;;;;;4.28;2.78;;;;;;;;;;5049041;28;20044;-68
2022/05/07 14:30:07;;;;;;;4.35;2.75;;;;;;;;;;5049015;28;20041;-69
2022/05/07 14:32:33;;;;;;;6.03;3.15;;;;;;;;;;5049174;28;20067;-68
2022/05/07 14:34:59;;;;;;;6.32;3.05;;;;;;;;;;5048858;28;20695;-69
2022/05/07 14:37:25;;;;;;;5.15;3.17;;;;;;;;;;5048631;28;20080;-68
2022/05/07 14:39:51;;;;;;;4.10;2.97;;;;;;;;;;5048623;28;20111;-69
2022/05/07 14:42:18;;;;;;;4.07;3.00;;;;;;;;;;5045900;28;20056;-68
2022/05/07 14:44:44;;;;;;;5.47;3.08;;;;;;;;;;5028702;28;20482;-68
2022/05/07 14:47:10;;;;;;;5.25;4.00;;;;;;;;;;5043902;28;20056;-69
2022/05/07 14:49:36;;;;;;;5.90;3.38;;;;;;;;;;5048541;28;20045;-69
2022/05/07 14:52:04;;;;;;;4.78;3.30;;;;;;;;;;5047120;28;20045;-68
2022/05/07 14:54:30;;;;;;;3.75;2.70;;;;;;;;;;5048440;28;20049;-69
2022/05/07 14:56:58;;;;;;;4.95;3.33;;;;;;;;;;5044072;28;20045;-69
2022/05/07 14:59:24;;;;;;;5.15;3.17;;;;;;;;;;5044224;28;20092;-69
2022/05/07 15:01:50;;;;;;;5.25;3.17;;;;;;;;;;5049536;28;20556;-67
2022/05/07 15:04:16;;;;;;;4.70;2.80;;;;;;;;;;5051328;28;20048;-69
2022/05/07 15:06:42;;;;;;;4.13;3.00;;;;;;;;;;5051730;28;20037;-67
2022/05/07 15:12:13;;;;;;;3.58;2.80;;;;;;;;;;4989688;28;20522;-68
2022/05/07 15:14:39;;;;;;;3.70;2.78;;;;;;;;;;4989669;28;20138;-69
2022/05/07 15:17:06;;;;;;;3.75;2.80;;;;;;;;;;5018228;28;20140;-70
2022/05/07 15:19:32;;;;;;;3.45;2.42;;;;;;;;;;5033164;28;20053;-69
2022/05/07 15:21:59;;;;;;;3.50;2.67;;;;;;;;;;5033470;28;20070;-69
2022/05/07 15:24:25;;;;;;;11.38;3.00;;;;;;;;;;5015709;28;20048;-68
2022/05/07 15:26:51;;;;;;;7.57;2.95;;;;;;;;;;5050762;28;20452;-68
2022/05/07 15:29:17;;;;;;;5.82;2.60;;;;;;;;;;5051312;28;20106;-68